sensor_id;sensor_type;location;lat;lon;timestamp;P1;durP1;ratioP1;P2;durP2;ratioP2
82950;SDS011;72737;53.332;6.514;2024-02-14T00:03:23;2.83;;;1.10;;
82950;SDS011;72737;53.332;6.514;2024-02-14T00:05:49;3.97;;;1.35;;
82950;SDS011;72737;53.332;6.514;2024-02-14T00:08:17;3.33;;;1.20;;
82950;SDS011;72737;53.332;6.514;2024-02-14T00:13:11;2.88;;;1.13;;
82950;SDS011;72737;53.332;6.514;2024-02-14T00:15:37;3.38;;;1.30;;
82950;SDS011;72737;53.332;6.514;2024-02-14T00:18:03;3.75;;;1.20;;
82950;SDS011;72737;53.332;6.514;2024-02-14T00:20:29;3.35;;;1.30;;
82950;SDS011;72737;53.332;6.514;2024-02-14T00:22:54;3.80;;;1.30;;
82950;SDS011;72737;53.332;6.514;2024-02-14T00:25:20;3.05;;;1.10;;
82950;SDS011;72737;53.332;6.514;2024-02-14T00:27:46;3.70;;;1.20;;
82950;SDS011;72737;53.332;6.514;2024-02-14T00:30:11;2.83;;;1.17;;
82950;SDS011;72737;53.332;6.514;2024-02-14T00:32:37;4.68;;;1.20;;
82950;SDS011;72737;53.332;6.514;2024-02-14T00:35:03;2.88;;;1.10;;
82950;SDS011;72737;53.332;6.514;2024-02-14T00:37:29;3.40;;;1.30;;
82950;SDS011;72737;53.332;6.514;2024-02-14T00:39:58;3.33;;;1.10;;
82950;SDS011;72737;53.332;6.514;2024-02-14T00:42:23;3.70;;;1.17;;
82950;SDS011;72737;53.332;6.514;2024-02-14T00:44:48;3.28;;;1.20;;
82950;SDS011;72737;53.332;6.514;2024-02-14T00:47:14;3.85;;;1.45;;
82950;SDS011;72737;53.332;6.514;2024-02-14T00:49:39;3.60;;;1.40;;
82950;SDS011;72737;53.332;6.514;2024-02-14T00:52:04;3.38;;;1.40;;
82950;SDS011;72737;53.332;6.514;2024-02-14T00:54:31;5.25;;;1.30;;
82950;SDS011;72737;53.332;6.514;2024-02-14T00:56:57;2.63;;;1.02;;
82950;SDS011;72737;53.332;6.514;2024-02-14T00:59:22;4.63;;;1.30;;
82950;SDS011;72737;53.332;6.514;2024-02-14T01:01:48;2.78;;;1.20;;
82950;SDS011;72737;53.332;6.514;2024-02-14T01:04:13;3.45;;;1.30;;
82950;SDS011;72737;53.332;6.514;2024-02-14T01:06:39;3.38;;;1.38;;
82950;SDS011;72737;53.332;6.514;2024-02-14T01:09:04;5.10;;;1.30;;
82950;SDS011;72737;53.332;6.514;2024-02-14T01:11:29;3.50;;;1.45;;
82950;SDS011;72737;53.332;6.514;2024-02-14T01:13:55;3.05;;;1.20;;
82950;SDS011;72737;53.332;6.514;2024-02-14T01:16:20;2.22;;;1.08;;
82950;SDS011;72737;53.332;6.514;2024-02-14T01:18:46;3.65;;;1.40;;
82950;SDS011;72737;53.332;6.514;2024-02-14T01:21:11;4.40;;;1.30;;
82950;SDS011;72737;53.332;6.514;2024-02-14T01:23:37;3.17;;;1.40;;
82950;SDS011;72737;53.332;6.514;2024-02-14T01:26:02;3.88;;;1.23;;
82950;SDS011;72737;53.332;6.514;2024-02-14T01:28:28;3.33;;;1.25;;
82950;SDS011;72737;53.332;6.514;2024-02-14T01:30:54;2.95;;;1.20;;
82950;SDS011;72737;53.332;6.514;2024-02-14T01:33:21;3.10;;;1.17;;
82950;SDS011;72737;53.332;6.514;2024-02-14T01:35:47;3.20;;;1.10;;
82950;SDS011;72737;53.332;6.514;2024-02-14T01:38:13;3.70;;;1.30;;
82950;SDS011;72737;53.332;6.514;2024-02-14T01:40:38;4.28;;;1.10;;
82950;SDS011;72737;53.332;6.514;2024-02-14T01:43:07;3.63;;;1.13;;
82950;SDS011;72737;53.332;6.514;2024-02-14T01:45:33;2.78;;;1.10;;
82950;SDS011;72737;53.332;6.514;2024-02-14T01:47:58;4.65;;;1.10;;
82950;SDS011;72737;53.332;6.514;2024-02-14T01:50:24;3.28;;;1.20;;
82950;SDS011;72737;53.332;6.514;2024-02-14T01:52:56;2.47;;;1.05;;
82950;SDS011;72737;53.332;6.514;2024-02-14T01:55:24;4.25;;;1.10;;
82950;SDS011;72737;53.332;6.514;2024-02-14T01:57:58;3.40;;;1.20;;
82950;SDS011;72737;53.332;6.514;2024-02-14T02:00:23;3.53;;;1.10;;
82950;SDS011;72737;53.332;6.514;2024-02-14T02:02:52;3.55;;;1.20;;
82950;SDS011;72737;53.332;6.514;2024-02-14T02:05:19;2.85;;;1.20;;
82950;SDS011;72737;53.332;6.514;2024-02-14T02:07:44;3.30;;;1.20;;
82950;SDS011;72737;53.332;6.514;2024-02-14T02:10:13;3.72;;;1.20;;
82950;SDS011;72737;53.332;6.514;2024-02-14T02:12:39;3.00;;;1.02;;
82950;SDS011;72737;53.332;6.514;2024-02-14T02:15:07;3.08;;;1.23;;
82950;SDS011;72737;53.332;6.514;2024-02-14T02:17:37;2.47;;;1.10;;
82950;SDS011;72737;53.332;6.514;2024-02-14T02:20:04;2.55;;;1.00;;
82950;SDS011;72737;53.332;6.514;2024-02-14T02:22:32;2.47;;;1.00;;
82950;SDS011;72737;53.332;6.514;2024-02-14T02:25:00;2.95;;;1.10;;
82950;SDS011;72737;53.332;6.514;2024-02-14T02:27:31;2.47;;;1.00;;
82950;SDS011;72737;53.332;6.514;2024-02-14T02:29:57;3.45;;;1.20;;
82950;SDS011;72737;53.332;6.514;2024-02-14T02:32:22;3.08;;;1.20;;
82950;SDS011;72737;53.332;6.514;2024-02-14T02:34:48;4.13;;;1.35;;
82950;SDS011;72737;53.332;6.514;2024-02-14T02:37:13;3.28;;;1.20;;
82950;SDS011;72737;53.332;6.514;2024-02-14T02:39:39;3.60;;;1.10;;
82950;SDS011;72737;53.332;6.514;2024-02-14T02:42:04;2.78;;;1.00;;
82950;SDS011;72737;53.332;6.514;2024-02-14T02:44:31;1.98;;;1.00;;
82950;SDS011;72737;53.332;6.514;2024-02-14T02:46:56;2.65;;;1.17;;
82950;SDS011;72737;53.332;6.514;2024-02-14T02:49:22;2.58;;;1.10;;
82950;SDS011;72737;53.332;6.514;2024-02-14T02:51:47;2.05;;;1.02;;
82950;SDS011;72737;53.332;6.514;2024-02-14T02:54:13;3.05;;;1.05;;
82950;SDS011;72737;53.332;6.514;2024-02-14T02:56:39;2.00;;;0.98;;
82950;SDS011;72737;53.332;6.514;2024-02-14T02:59:06;2.05;;;0.98;;
82950;SDS011;72737;53.332;6.514;2024-02-14T03:01:36;2.47;;;0.93;;
82950;SDS011;72737;53.332;6.514;2024-02-14T03:04:08;2.72;;;1.10;;
82950;SDS011;72737;53.332;6.514;2024-02-14T03:06:33;2.03;;;0.88;;
82950;SDS011;72737;53.332;6.514;2024-02-14T03:09:00;4.40;;;1.00;;
82950;SDS011;72737;53.332;6.514;2024-02-14T03:11:25;2.70;;;0.93;;
82950;SDS011;72737;53.332;6.514;2024-02-14T03:16:17;1.90;;;0.90;;
82950;SDS011;72737;53.332;6.514;2024-02-14T03:18:43;1.90;;;0.90;;
82950;SDS011;72737;53.332;6.514;2024-02-14T03:21:09;2.13;;;1.00;;
82950;SDS011;72737;53.332;6.514;2024-02-14T03:23:34;2.88;;;1.00;;
82950;SDS011;72737;53.332;6.514;2024-02-14T03:26:00;3.08;;;1.00;;
82950;SDS011;72737;53.332;6.514;2024-02-14T03:28:26;2.13;;;0.80;;
82950;SDS011;72737;53.332;6.514;2024-02-14T03:30:52;1.90;;;0.90;;
82950;SDS011;72737;53.332;6.514;2024-02-14T03:33:18;1.77;;;0.90;;
82950;SDS011;72737;53.332;6.514;2024-02-14T03:35:43;2.05;;;0.88;;
82950;SDS011;72737;53.332;6.514;2024-02-14T03:38:08;2.10;;;1.00;;
82950;SDS011;72737;53.332;6.514;2024-02-14T03:40:35;1.85;;;0.80;;
82950;SDS011;72737;53.332;6.514;2024-02-14T03:43:02;2.95;;;0.90;;
82950;SDS011;72737;53.332;6.514;2024-02-14T03:45:27;2.67;;;0.90;;
82950;SDS011;72737;53.332;6.514;2024-02-14T03:47:57;2.70;;;1.00;;
82950;SDS011;72737;53.332;6.514;2024-02-14T03:50:23;2.60;;;0.95;;
82950;SDS011;72737;53.332;6.514;2024-02-14T03:52:49;1.77;;;0.90;;
82950;SDS011;72737;53.332;6.514;2024-02-14T03:55:14;2.00;;;0.88;;
82950;SDS011;72737;53.332;6.514;2024-02-14T03:57:42;2.50;;;1.00;;
82950;SDS011;72737;53.332;6.514;2024-02-14T04:00:10;1.75;;;0.80;;
82950;SDS011;72737;53.332;6.514;2024-02-14T04:02:36;3.10;;;0.88;;
82950;SDS011;72737;53.332;6.514;2024-02-14T04:05:01;3.00;;;0.80;;
82950;SDS011;72737;53.332;6.514;2024-02-14T04:07:27;2.15;;;0.93;;
82950;SDS011;72737;53.332;6.514;2024-02-14T04:09:53;1.45;;;0.80;;
82950;SDS011;72737;53.332;6.514;2024-02-14T04:12:18;2.28;;;1.00;;
82950;SDS011;72737;53.332;6.514;2024-02-14T04:14:45;2.60;;;1.00;;
82950;SDS011;72737;53.332;6.514;2024-02-14T04:17:12;1.83;;;0.95;;
82950;SDS011;72737;53.332;6.514;2024-02-14T04:19:38;2.63;;;0.90;;
82950;SDS011;72737;53.332;6.514;2024-02-14T04:24:35;1.27;;;0.80;;
82950;SDS011;72737;53.332;6.514;2024-02-14T04:27:01;1.98;;;0.80;;
82950;SDS011;72737;53.332;6.514;2024-02-14T04:29:28;1.05;;;0.70;;
82950;SDS011;72737;53.332;6.514;2024-02-14T04:31:55;1.50;;;0.80;;
82950;SDS011;72737;53.332;6.514;2024-02-14T04:34:21;1.80;;;0.80;;
82950;SDS011;72737;53.332;6.514;2024-02-14T04:36:46;1.83;;;0.80;;
82950;SDS011;72737;53.332;6.514;2024-02-14T04:39:12;2.40;;;0.80;;
82950;SDS011;72737;53.332;6.514;2024-02-14T04:41:37;1.58;;;0.68;;
82950;SDS011;72737;53.332;6.514;2024-02-14T04:44:04;1.90;;;0.80;;
82950;SDS011;72737;53.332;6.514;2024-02-14T04:46:33;2.42;;;0.90;;
82950;SDS011;72737;53.332;6.514;2024-02-14T04:49:02;2.95;;;0.80;;
82950;SDS011;72737;53.332;6.514;2024-02-14T04:51:29;1.17;;;0.63;;
82950;SDS011;72737;53.332;6.514;2024-02-14T04:56:23;2.40;;;0.88;;
82950;SDS011;72737;53.332;6.514;2024-02-14T04:58:49;1.73;;;0.80;;
82950;SDS011;72737;53.332;6.514;2024-02-14T05:01:15;1.80;;;0.82;;
82950;SDS011;72737;53.332;6.514;2024-02-14T05:03:41;1.55;;;0.75;;
82950;SDS011;72737;53.332;6.514;2024-02-14T05:06:06;2.28;;;0.80;;
82950;SDS011;72737;53.332;6.514;2024-02-14T05:08:32;1.85;;;0.90;;
82950;SDS011;72737;53.332;6.514;2024-02-14T05:10:57;1.10;;;0.70;;
82950;SDS011;72737;53.332;6.514;2024-02-14T05:13:22;1.42;;;0.80;;
82950;SDS011;72737;53.332;6.514;2024-02-14T05:15:49;1.30;;;0.70;;
82950;SDS011;72737;53.332;6.514;2024-02-14T05:18:16;1.27;;;0.60;;
82950;SDS011;72737;53.332;6.514;2024-02-14T05:20:41;2.42;;;0.82;;
82950;SDS011;72737;53.332;6.514;2024-02-14T05:23:07;1.73;;;0.73;;
82950;SDS011;72737;53.332;6.514;2024-02-14T05:25:33;1.70;;;0.63;;
82950;SDS011;72737;53.332;6.514;2024-02-14T05:27:58;1.55;;;0.75;;
82950;SDS011;72737;53.332;6.514;2024-02-14T05:30:25;1.40;;;0.60;;
82950;SDS011;72737;53.332;6.514;2024-02-14T05:35:18;2.30;;;0.80;;
82950;SDS011;72737;53.332;6.514;2024-02-14T05:37:44;1.52;;;0.77;;
82950;SDS011;72737;53.332;6.514;2024-02-14T05:40:15;1.35;;;0.70;;
82950;SDS011;72737;53.332;6.514;2024-02-14T05:42:41;1.30;;;0.50;;
82950;SDS011;72737;53.332;6.514;2024-02-14T05:45:07;1.20;;;0.70;;
82950;SDS011;72737;53.332;6.514;2024-02-14T05:47:34;1.38;;;0.70;;
82950;SDS011;72737;53.332;6.514;2024-02-14T05:50:00;1.48;;;0.85;;
82950;SDS011;72737;53.332;6.514;2024-02-14T05:52:27;1.95;;;0.70;;
82950;SDS011;72737;53.332;6.514;2024-02-14T05:54:52;1.98;;;0.70;;
82950;SDS011;72737;53.332;6.514;2024-02-14T05:57:19;1.00;;;0.70;;
82950;SDS011;72737;53.332;6.514;2024-02-14T05:59:44;1.10;;;0.60;;
82950;SDS011;72737;53.332;6.514;2024-02-14T06:02:09;2.05;;;0.75;;
82950;SDS011;72737;53.332;6.514;2024-02-14T06:04:35;1.50;;;0.70;;
82950;SDS011;72737;53.332;6.514;2024-02-14T06:07:01;2.30;;;0.70;;
82950;SDS011;72737;53.332;6.514;2024-02-14T06:09:26;2.30;;;0.98;;
82950;SDS011;72737;53.332;6.514;2024-02-14T06:11:52;1.67;;;0.65;;
82950;SDS011;72737;53.332;6.514;2024-02-14T06:14:17;2.08;;;0.80;;
82950;SDS011;72737;53.332;6.514;2024-02-14T06:16:43;2.03;;;0.70;;
82950;SDS011;72737;53.332;6.514;2024-02-14T06:19:09;1.77;;;0.73;;
82950;SDS011;72737;53.332;6.514;2024-02-14T06:21:35;1.60;;;0.90;;
82950;SDS011;72737;53.332;6.514;2024-02-14T06:24:01;2.30;;;0.88;;
82950;SDS011;72737;53.332;6.514;2024-02-14T06:26:29;1.42;;;0.60;;
82950;SDS011;72737;53.332;6.514;2024-02-14T06:28:55;2.22;;;1.00;;
82950;SDS011;72737;53.332;6.514;2024-02-14T06:31:21;1.60;;;0.70;;
82950;SDS011;72737;53.332;6.514;2024-02-14T06:33:47;2.45;;;0.75;;
82950;SDS011;72737;53.332;6.514;2024-02-14T06:36:13;2.78;;;0.80;;
82950;SDS011;72737;53.332;6.514;2024-02-14T06:38:38;1.40;;;0.70;;
82950;SDS011;72737;53.332;6.514;2024-02-14T06:41:05;2.33;;;0.70;;
82950;SDS011;72737;53.332;6.514;2024-02-14T06:43:30;1.33;;;0.70;;
82950;SDS011;72737;53.332;6.514;2024-02-14T06:45:56;1.15;;;0.55;;
82950;SDS011;72737;53.332;6.514;2024-02-14T06:48:22;2.25;;;0.70;;
82950;SDS011;72737;53.332;6.514;2024-02-14T06:50:49;1.15;;;0.70;;
82950;SDS011;72737;53.332;6.514;2024-02-14T06:53:15;1.70;;;0.70;;
82950;SDS011;72737;53.332;6.514;2024-02-14T06:55:41;0.65;;;0.43;;
82950;SDS011;72737;53.332;6.514;2024-02-14T06:58:06;0.77;;;0.52;;
82950;SDS011;72737;53.332;6.514;2024-02-14T07:00:32;1.75;;;0.65;;
82950;SDS011;72737;53.332;6.514;2024-02-14T07:02:58;2.45;;;0.80;;
82950;SDS011;72737;53.332;6.514;2024-02-14T07:05:23;1.58;;;0.60;;
82950;SDS011;72737;53.332;6.514;2024-02-14T07:07:49;1.42;;;0.40;;
82950;SDS011;72737;53.332;6.514;2024-02-14T07:10:15;1.05;;;0.60;;
82950;SDS011;72737;53.332;6.514;2024-02-14T07:12:40;3.83;;;0.70;;
82950;SDS011;72737;53.332;6.514;2024-02-14T07:15:07;1.92;;;0.80;;
82950;SDS011;72737;53.332;6.514;2024-02-14T07:17:33;2.15;;;0.77;;
82950;SDS011;72737;53.332;6.514;2024-02-14T07:19:59;2.15;;;0.80;;
82950;SDS011;72737;53.332;6.514;2024-02-14T07:22:24;4.18;;;0.85;;
82950;SDS011;72737;53.332;6.514;2024-02-14T07:24:56;3.10;;;0.85;;
82950;SDS011;72737;53.332;6.514;2024-02-14T07:27:21;4.47;;;0.90;;
82950;SDS011;72737;53.332;6.514;2024-02-14T07:29:48;2.20;;;0.73;;
82950;SDS011;72737;53.332;6.514;2024-02-14T07:32:14;3.58;;;0.82;;
82950;SDS011;72737;53.332;6.514;2024-02-14T07:34:40;3.42;;;0.73;;
82950;SDS011;72737;53.332;6.514;2024-02-14T07:37:06;3.72;;;0.90;;
82950;SDS011;72737;53.332;6.514;2024-02-14T07:39:33;3.72;;;1.02;;
82950;SDS011;72737;53.332;6.514;2024-02-14T07:42:00;3.33;;;1.08;;
82950;SDS011;72737;53.332;6.514;2024-02-14T07:44:28;3.70;;;1.00;;
82950;SDS011;72737;53.332;6.514;2024-02-14T07:46:57;3.92;;;1.00;;
82950;SDS011;72737;53.332;6.514;2024-02-14T07:49:22;6.10;;;1.40;;
82950;SDS011;72737;53.332;6.514;2024-02-14T07:51:47;6.03;;;1.35;;
82950;SDS011;72737;53.332;6.514;2024-02-14T07:54:13;5.97;;;1.05;;
82950;SDS011;72737;53.332;6.514;2024-02-14T07:56:40;5.50;;;1.20;;
82950;SDS011;72737;53.332;6.514;2024-02-14T07:59:05;4.88;;;1.15;;
82950;SDS011;72737;53.332;6.514;2024-02-14T08:01:30;5.88;;;1.23;;
82950;SDS011;72737;53.332;6.514;2024-02-14T08:03:57;5.38;;;1.30;;
82950;SDS011;72737;53.332;6.514;2024-02-14T08:06:23;5.78;;;1.30;;
82950;SDS011;72737;53.332;6.514;2024-02-14T08:08:48;5.25;;;1.13;;
82950;SDS011;72737;53.332;6.514;2024-02-14T08:11:16;4.55;;;1.20;;
82950;SDS011;72737;53.332;6.514;2024-02-14T08:13:42;5.05;;;1.58;;
82950;SDS011;72737;53.332;6.514;2024-02-14T08:16:08;5.68;;;1.50;;
82950;SDS011;72737;53.332;6.514;2024-02-14T08:18:33;6.85;;;1.52;;
82950;SDS011;72737;53.332;6.514;2024-02-14T08:21:00;6.40;;;1.50;;
82950;SDS011;72737;53.332;6.514;2024-02-14T08:23:26;7.07;;;1.50;;
82950;SDS011;72737;53.332;6.514;2024-02-14T08:25:52;6.60;;;1.05;;
82950;SDS011;72737;53.332;6.514;2024-02-14T08:28:17;6.22;;;1.20;;
82950;SDS011;72737;53.332;6.514;2024-02-14T08:30:43;8.15;;;1.50;;
82950;SDS011;72737;53.332;6.514;2024-02-14T08:33:09;5.00;;;1.20;;
82950;SDS011;72737;53.332;6.514;2024-02-14T08:35:35;5.28;;;1.45;;
82950;SDS011;72737;53.332;6.514;2024-02-14T08:38:01;7.75;;;1.50;;
82950;SDS011;72737;53.332;6.514;2024-02-14T08:40:26;6.70;;;1.70;;
82950;SDS011;72737;53.332;6.514;2024-02-14T08:42:52;9.20;;;2.08;;
82950;SDS011;72737;53.332;6.514;2024-02-14T08:45:20;7.93;;;1.80;;
82950;SDS011;72737;53.332;6.514;2024-02-14T08:47:46;9.23;;;2.22;;
82950;SDS011;72737;53.332;6.514;2024-02-14T08:50:11;9.20;;;2.22;;
82950;SDS011;72737;53.332;6.514;2024-02-14T08:52:37;7.57;;;1.80;;
82950;SDS011;72737;53.332;6.514;2024-02-14T08:55:05;10.77;;;2.10;;
82950;SDS011;72737;53.332;6.514;2024-02-14T08:57:33;10.40;;;2.00;;
82950;SDS011;72737;53.332;6.514;2024-02-14T09:00:00;12.10;;;2.35;;
82950;SDS011;72737;53.332;6.514;2024-02-14T09:02:27;12.45;;;2.60;;
82950;SDS011;72737;53.332;6.514;2024-02-14T09:04:53;11.25;;;2.55;;
82950;SDS011;72737;53.332;6.514;2024-02-14T09:07:18;8.80;;;2.25;;
82950;SDS011;72737;53.332;6.514;2024-02-14T09:09:44;9.45;;;2.42;;
82950;SDS011;72737;53.332;6.514;2024-02-14T09:12:11;10.55;;;2.63;;
82950;SDS011;72737;53.332;6.514;2024-02-14T09:14:38;9.23;;;2.38;;
82950;SDS011;72737;53.332;6.514;2024-02-14T09:19:28;9.73;;;2.20;;
82950;SDS011;72737;53.332;6.514;2024-02-14T09:21:56;9.48;;;2.28;;
82950;SDS011;72737;53.332;6.514;2024-02-14T09:24:22;10.50;;;2.63;;
82950;SDS011;72737;53.332;6.514;2024-02-14T09:26:47;10.20;;;2.53;;
82950;SDS011;72737;53.332;6.514;2024-02-14T09:29:13;9.35;;;2.15;;
82950;SDS011;72737;53.332;6.514;2024-02-14T09:31:40;11.38;;;2.50;;
82950;SDS011;72737;53.332;6.514;2024-02-14T09:34:05;9.20;;;2.08;;
82950;SDS011;72737;53.332;6.514;2024-02-14T09:36:31;8.98;;;2.45;;
82950;SDS011;72737;53.332;6.514;2024-02-14T09:38:56;9.45;;;2.20;;
82950;SDS011;72737;53.332;6.514;2024-02-14T09:41:36;11.85;;;2.72;;
82950;SDS011;72737;53.332;6.514;2024-02-14T09:44:03;10.77;;;2.38;;
82950;SDS011;72737;53.332;6.514;2024-02-14T09:46:28;9.30;;;2.30;;
82950;SDS011;72737;53.332;6.514;2024-02-14T09:48:55;11.57;;;2.53;;
82950;SDS011;72737;53.332;6.514;2024-02-14T09:51:24;9.05;;;2.15;;
82950;SDS011;72737;53.332;6.514;2024-02-14T09:53:50;10.82;;;2.90;;
82950;SDS011;72737;53.332;6.514;2024-02-14T09:56:18;9.25;;;1.90;;
82950;SDS011;72737;53.332;6.514;2024-02-14T09:58:47;11.18;;;2.60;;
82950;SDS011;72737;53.332;6.514;2024-02-14T10:01:24;11.00;;;2.60;;
82950;SDS011;72737;53.332;6.514;2024-02-14T10:03:51;9.55;;;2.60;;
82950;SDS011;72737;53.332;6.514;2024-02-14T10:06:19;9.93;;;2.20;;
82950;SDS011;72737;53.332;6.514;2024-02-14T10:08:49;12.02;;;2.47;;
82950;SDS011;72737;53.332;6.514;2024-02-14T10:11:16;10.07;;;3.13;;
82950;SDS011;72737;53.332;6.514;2024-02-14T10:16:12;12.55;;;2.33;;
82950;SDS011;72737;53.332;6.514;2024-02-14T10:18:38;10.30;;;2.38;;
82950;SDS011;72737;53.332;6.514;2024-02-14T10:21:05;9.95;;;2.28;;
82950;SDS011;72737;53.332;6.514;2024-02-14T10:23:30;8.27;;;2.33;;
82950;SDS011;72737;53.332;6.514;2024-02-14T10:25:57;9.45;;;2.30;;
82950;SDS011;72737;53.332;6.514;2024-02-14T10:28:23;11.63;;;2.63;;
82950;SDS011;72737;53.332;6.514;2024-02-14T10:30:48;10.38;;;2.10;;
82950;SDS011;72737;53.332;6.514;2024-02-14T10:33:17;9.27;;;2.20;;
82950;SDS011;72737;53.332;6.514;2024-02-14T10:35:42;10.23;;;2.22;;
82950;SDS011;72737;53.332;6.514;2024-02-14T10:38:09;9.40;;;2.25;;
82950;SDS011;72737;53.332;6.514;2024-02-14T10:40:37;10.10;;;2.63;;
82950;SDS011;72737;53.332;6.514;2024-02-14T10:43:06;9.65;;;2.28;;
82950;SDS011;72737;53.332;6.514;2024-02-14T10:45:35;9.23;;;2.35;;
82950;SDS011;72737;53.332;6.514;2024-02-14T10:48:02;10.07;;;2.28;;
82950;SDS011;72737;53.332;6.514;2024-02-14T10:50:29;8.10;;;2.13;;
82950;SDS011;72737;53.332;6.514;2024-02-14T10:52:59;8.80;;;2.10;;
82950;SDS011;72737;53.332;6.514;2024-02-14T10:55:29;9.70;;;2.10;;
82950;SDS011;72737;53.332;6.514;2024-02-14T10:57:57;7.78;;;2.00;;
82950;SDS011;72737;53.332;6.514;2024-02-14T11:00:22;9.13;;;2.38;;
82950;SDS011;72737;53.332;6.514;2024-02-14T11:02:48;8.82;;;2.42;;
82950;SDS011;72737;53.332;6.514;2024-02-14T11:05:14;8.48;;;2.35;;
82950;SDS011;72737;53.332;6.514;2024-02-14T11:07:44;8.02;;;2.20;;
82950;SDS011;72737;53.332;6.514;2024-02-14T11:10:14;7.72;;;2.20;;
82950;SDS011;72737;53.332;6.514;2024-02-14T11:12:41;9.93;;;2.50;;
82950;SDS011;72737;53.332;6.514;2024-02-14T11:17:42;7.53;;;2.00;;
82950;SDS011;72737;53.332;6.514;2024-02-14T11:20:21;8.75;;;2.30;;
82950;SDS011;72737;53.332;6.514;2024-02-14T11:22:56;6.97;;;1.98;;
82950;SDS011;72737;53.332;6.514;2024-02-14T11:25:27;9.10;;;2.17;;
82950;SDS011;72737;53.332;6.514;2024-02-14T11:27:55;7.90;;;2.30;;
82950;SDS011;72737;53.332;6.514;2024-02-14T11:33:19;7.13;;;1.95;;
82950;SDS011;72737;53.332;6.514;2024-02-14T11:35:49;7.47;;;2.30;;
82950;SDS011;72737;53.332;6.514;2024-02-14T11:38:16;7.68;;;2.40;;
82950;SDS011;72737;53.332;6.514;2024-02-14T11:40:42;10.10;;;2.20;;
82950;SDS011;72737;53.332;6.514;2024-02-14T11:43:14;9.63;;;2.30;;
82950;SDS011;72737;53.332;6.514;2024-02-14T11:45:42;7.53;;;2.17;;
82950;SDS011;72737;53.332;6.514;2024-02-14T11:48:09;8.70;;;2.40;;
82950;SDS011;72737;53.332;6.514;2024-02-14T11:50:36;7.60;;;1.92;;
82950;SDS011;72737;53.332;6.514;2024-02-14T11:53:03;8.13;;;2.10;;
82950;SDS011;72737;53.332;6.514;2024-02-14T11:55:31;7.68;;;1.83;;
82950;SDS011;72737;53.332;6.514;2024-02-14T11:57:57;8.52;;;2.20;;
82950;SDS011;72737;53.332;6.514;2024-02-14T12:00:23;8.20;;;2.22;;
82950;SDS011;72737;53.332;6.514;2024-02-14T12:02:49;9.63;;;2.40;;
82950;SDS011;72737;53.332;6.514;2024-02-14T12:07:42;9.52;;;2.45;;
82950;SDS011;72737;53.332;6.514;2024-02-14T12:10:08;7.72;;;2.13;;
82950;SDS011;72737;53.332;6.514;2024-02-14T12:12:34;6.72;;;2.03;;
82950;SDS011;72737;53.332;6.514;2024-02-14T12:15:01;9.20;;;2.28;;
82950;SDS011;72737;53.332;6.514;2024-02-14T12:17:27;6.75;;;2.15;;
82950;SDS011;72737;53.332;6.514;2024-02-14T12:19:53;7.38;;;2.10;;
82950;SDS011;72737;53.332;6.514;2024-02-14T12:22:18;6.95;;;2.00;;
82950;SDS011;72737;53.332;6.514;2024-02-14T12:24:45;5.85;;;2.05;;
82950;SDS011;72737;53.332;6.514;2024-02-14T12:27:10;5.60;;;1.80;;
82950;SDS011;72737;53.332;6.514;2024-02-14T12:29:36;7.13;;;2.00;;
82950;SDS011;72737;53.332;6.514;2024-02-14T12:32:05;7.57;;;2.30;;
82950;SDS011;72737;53.332;6.514;2024-02-14T12:34:31;5.95;;;1.92;;
82950;SDS011;72737;53.332;6.514;2024-02-14T12:36:57;6.50;;;2.05;;
82950;SDS011;72737;53.332;6.514;2024-02-14T12:39:23;7.25;;;1.75;;
82950;SDS011;72737;53.332;6.514;2024-02-14T12:41:51;7.05;;;2.10;;
82950;SDS011;72737;53.332;6.514;2024-02-14T12:44:17;6.20;;;2.13;;
82950;SDS011;72737;53.332;6.514;2024-02-14T12:46:42;6.80;;;1.67;;
82950;SDS011;72737;53.332;6.514;2024-02-14T12:49:08;6.22;;;1.63;;
82950;SDS011;72737;53.332;6.514;2024-02-14T12:51:34;7.35;;;2.17;;
82950;SDS011;72737;53.332;6.514;2024-02-14T12:54:01;6.43;;;1.80;;
82950;SDS011;72737;53.332;6.514;2024-02-14T12:56:26;7.20;;;1.60;;
82950;SDS011;72737;53.332;6.514;2024-02-14T12:58:52;6.43;;;1.67;;
82950;SDS011;72737;53.332;6.514;2024-02-14T13:01:18;6.60;;;1.98;;
82950;SDS011;72737;53.332;6.514;2024-02-14T13:03:43;5.72;;;1.60;;
82950;SDS011;72737;53.332;6.514;2024-02-14T13:06:10;5.63;;;1.58;;
82950;SDS011;72737;53.332;6.514;2024-02-14T13:08:36;6.00;;;1.90;;
82950;SDS011;72737;53.332;6.514;2024-02-14T13:11:04;4.35;;;1.52;;
82950;SDS011;72737;53.332;6.514;2024-02-14T13:13:30;6.15;;;1.73;;
82950;SDS011;72737;53.332;6.514;2024-02-14T13:15:55;5.30;;;1.70;;
82950;SDS011;72737;53.332;6.514;2024-02-14T13:18:21;6.53;;;1.83;;
82950;SDS011;72737;53.332;6.514;2024-02-14T13:20:47;5.30;;;1.50;;
82950;SDS011;72737;53.332;6.514;2024-02-14T13:23:13;5.45;;;1.65;;
82950;SDS011;72737;53.332;6.514;2024-02-14T13:25:39;4.82;;;1.60;;
82950;SDS011;72737;53.332;6.514;2024-02-14T13:28:05;5.63;;;1.60;;
82950;SDS011;72737;53.332;6.514;2024-02-14T13:30:31;5.10;;;1.60;;
82950;SDS011;72737;53.332;6.514;2024-02-14T13:32:56;3.90;;;1.40;;
82950;SDS011;72737;53.332;6.514;2024-02-14T13:35:22;4.93;;;1.65;;
82950;SDS011;72737;53.332;6.514;2024-02-14T13:37:48;6.43;;;1.70;;
82950;SDS011;72737;53.332;6.514;2024-02-14T13:40:14;4.20;;;1.48;;
82950;SDS011;72737;53.332;6.514;2024-02-14T13:42:39;4.78;;;1.60;;
82950;SDS011;72737;53.332;6.514;2024-02-14T13:45:05;6.10;;;1.60;;
82950;SDS011;72737;53.332;6.514;2024-02-14T13:47:37;5.40;;;1.60;;
82950;SDS011;72737;53.332;6.514;2024-02-14T13:50:07;4.82;;;1.70;;
82950;SDS011;72737;53.332;6.514;2024-02-14T13:52:33;5.72;;;1.60;;
82950;SDS011;72737;53.332;6.514;2024-02-14T13:54:59;4.38;;;1.50;;
82950;SDS011;72737;53.332;6.514;2024-02-14T13:57:27;5.32;;;1.45;;
82950;SDS011;72737;53.332;6.514;2024-02-14T13:59:52;4.45;;;1.27;;
82950;SDS011;72737;53.332;6.514;2024-02-14T14:02:19;4.38;;;1.30;;
82950;SDS011;72737;53.332;6.514;2024-02-14T14:04:44;4.22;;;1.40;;
82950;SDS011;72737;53.332;6.514;2024-02-14T14:07:09;3.72;;;1.20;;
82950;SDS011;72737;53.332;6.514;2024-02-14T14:09:35;4.07;;;1.27;;
82950;SDS011;72737;53.332;6.514;2024-02-14T14:12:00;3.30;;;1.13;;
82950;SDS011;72737;53.332;6.514;2024-02-14T14:14:26;4.15;;;1.27;;
82950;SDS011;72737;53.332;6.514;2024-02-14T14:16:52;5.53;;;1.40;;
82950;SDS011;72737;53.332;6.514;2024-02-14T14:19:18;4.53;;;1.30;;
82950;SDS011;72737;53.332;6.514;2024-02-14T14:21:43;5.50;;;1.40;;
82950;SDS011;72737;53.332;6.514;2024-02-14T14:24:09;4.95;;;1.52;;
82950;SDS011;72737;53.332;6.514;2024-02-14T14:26:34;4.63;;;1.40;;
82950;SDS011;72737;53.332;6.514;2024-02-14T14:29:00;3.90;;;1.35;;
82950;SDS011;72737;53.332;6.514;2024-02-14T14:31:26;4.82;;;1.42;;
82950;SDS011;72737;53.332;6.514;2024-02-14T14:33:51;3.58;;;1.33;;
82950;SDS011;72737;53.332;6.514;2024-02-14T14:38:44;3.80;;;1.20;;
82950;SDS011;72737;53.332;6.514;2024-02-14T14:41:10;4.25;;;1.77;;
82950;SDS011;72737;53.332;6.514;2024-02-14T14:43:35;4.97;;;1.58;;
82950;SDS011;72737;53.332;6.514;2024-02-14T14:46:02;5.30;;;1.30;;
82950;SDS011;72737;53.332;6.514;2024-02-14T14:48:27;4.40;;;1.42;;
82950;SDS011;72737;53.332;6.514;2024-02-14T14:50:53;4.20;;;1.40;;
82950;SDS011;72737;53.332;6.514;2024-02-14T14:53:18;5.05;;;1.40;;
82950;SDS011;72737;53.332;6.514;2024-02-14T14:55:54;3.28;;;1.20;;
82950;SDS011;72737;53.332;6.514;2024-02-14T14:58:25;4.00;;;1.20;;
82950;SDS011;72737;53.332;6.514;2024-02-14T15:00:58;3.58;;;1.30;;
82950;SDS011;72737;53.332;6.514;2024-02-14T15:03:24;3.38;;;1.45;;
82950;SDS011;72737;53.332;6.514;2024-02-14T15:05:50;3.90;;;1.25;;
82950;SDS011;72737;53.332;6.514;2024-02-14T15:08:16;4.82;;;1.40;;
82950;SDS011;72737;53.332;6.514;2024-02-14T15:10:48;3.75;;;1.20;;
82950;SDS011;72737;53.332;6.514;2024-02-14T15:13:15;4.13;;;1.30;;